createdAt,value
2023-02-04T00:00:52.635Z,25.80
2023-02-04T00:01:52.632Z,25.80
2023-02-04T00:02:52.666Z,25.76
2023-02-04T00:03:52.597Z,25.81
2023-02-04T00:04:52.581Z,25.80
2023-02-04T00:05:52.619Z,25.84
2023-02-04T00:06:52.560Z,25.80
2023-02-04T00:07:52.555Z,25.78
2023-02-04T00:08:52.536Z,25.80
2023-02-04T00:09:52.524Z,25.78
2023-02-04T00:10:52.535Z,25.78
2023-02-04T00:11:52.521Z,25.76
2023-02-04T00:12:52.506Z,25.82
2023-02-04T00:13:52.493Z,25.80
2023-02-04T00:14:52.480Z,25.82
2023-02-04T00:15:52.483Z,25.82
2023-02-04T00:16:52.455Z,25.79
2023-02-04T00:17:52.429Z,25.78
2023-02-04T00:18:52.430Z,25.78
2023-02-04T00:19:52.422Z,25.80
2023-02-04T00:20:52.411Z,25.81
2023-02-04T00:21:52.414Z,25.78
2023-02-04T00:22:52.425Z,25.72
2023-02-04T00:23:52.430Z,25.78
2023-02-04T00:24:52.382Z,25.76
2023-02-04T00:25:52.422Z,25.76
2023-02-04T00:26:52.357Z,25.81
2023-02-04T00:27:52.386Z,25.82
2023-02-04T00:28:52.351Z,25.75
2023-02-04T00:29:52.338Z,25.81
2023-02-04T00:30:52.321Z,25.77
2023-02-04T00:31:52.407Z,25.80
2023-02-04T00:32:52.302Z,25.80
2023-02-04T00:33:52.289Z,25.78
2023-02-04T00:34:52.271Z,25.81
2023-02-04T00:35:52.262Z,25.75
2023-02-04T00:36:52.240Z,25.78
2023-02-04T00:37:52.237Z,25.81
2023-02-04T00:38:52.213Z,25.79
2023-02-04T00:39:52.197Z,25.82
2023-02-04T00:40:52.191Z,25.80
2023-02-04T00:41:52.164Z,25.77
2023-02-04T00:42:52.132Z,25.81
2023-02-04T00:43:52.137Z,25.76
2023-02-04T00:44:52.116Z,25.78
2023-02-04T00:45:52.123Z,25.81
2023-02-04T00:46:52.140Z,25.79
2023-02-04T00:47:52.081Z,25.75
2023-02-04T00:48:52.066Z,25.76
2023-02-04T00:49:52.151Z,25.76
2023-02-04T00:50:52.032Z,25.81
2023-02-04T00:51:52.018Z,25.85
2023-02-04T00:52:52.000Z,25.76
2023-02-04T00:53:51.995Z,25.76
2023-02-04T00:54:51.973Z,25.74
2023-02-04T00:55:51.972Z,25.77
2023-02-04T00:56:51.943Z,25.76
2023-02-04T00:57:51.941Z,25.78
2023-02-04T00:58:51.906Z,25.75
2023-02-04T00:59:51.898Z,25.78
2023-02-04T01:00:51.921Z,25.74
2023-02-04T01:01:51.880Z,25.78
2023-02-04T01:02:51.973Z,25.76
2023-02-04T01:03:51.875Z,25.77
2023-02-04T01:04:51.850Z,25.75
2023-02-04T01:05:51.842Z,25.75
2023-02-04T01:06:51.852Z,25.75
2023-02-04T01:07:51.860Z,25.78
2023-02-04T01:08:51.799Z,25.78
2023-02-04T01:09:51.817Z,25.78
2023-02-04T01:10:51.778Z,25.76
2023-02-04T01:11:51.776Z,25.78
2023-02-04T01:12:51.763Z,25.76
2023-02-04T01:13:51.753Z,25.76
2023-02-04T01:14:51.733Z,25.74
2023-02-04T01:15:51.712Z,25.72
2023-02-04T01:16:51.716Z,25.81
2023-02-04T01:17:51.696Z,25.80
2023-02-04T01:18:51.671Z,25.75
2023-02-04T01:19:51.652Z,25.79
2023-02-04T01:20:51.630Z,25.75
2023-02-04T01:21:51.630Z,25.75
2023-02-04T01:22:51.614Z,25.76
2023-02-04T01:23:51.593Z,25.75
2023-02-04T01:24:51.581Z,25.78
2023-02-04T01:25:51.565Z,25.73
2023-02-04T01:26:51.549Z,25.74
2023-02-04T01:27:51.583Z,25.76
2023-02-04T01:28:51.545Z,25.75
2023-02-04T01:29:51.517Z,25.76
2023-02-04T01:30:51.595Z,25.78
2023-02-04T01:31:51.597Z,25.72
2023-02-04T01:32:51.514Z,25.76
2023-02-04T01:33:51.505Z,25.70
2023-02-04T01:34:51.492Z,25.74
2023-02-04T01:35:51.493Z,25.75
2023-02-04T01:36:51.511Z,25.74
2023-02-04T01:37:51.494Z,25.75
2023-02-04T01:38:51.471Z,25.74
2023-02-04T01:39:51.521Z,25.71
2023-02-04T01:40:51.449Z,25.75
2023-02-04T01:41:51.431Z,25.75
2023-02-04T01:42:51.440Z,25.76
2023-02-04T01:43:51.436Z,25.75
2023-02-04T01:44:51.423Z,25.72
2023-02-04T01:45:51.441Z,25.78
2023-02-04T01:46:51.397Z,25.69
2023-02-04T01:47:51.393Z,25.75
2023-02-04T01:48:51.378Z,25.78
2023-02-04T01:49:51.396Z,25.73
2023-02-04T01:50:51.362Z,25.72
2023-02-04T01:51:51.349Z,25.73
2023-02-04T01:52:51.346Z,25.75
2023-02-04T01:53:51.335Z,25.73
2023-02-04T01:54:51.318Z,25.75
2023-02-04T01:55:51.318Z,25.75
2023-02-04T01:56:51.288Z,25.75
2023-02-04T01:57:51.289Z,25.73
2023-02-04T01:58:51.289Z,25.81
2023-02-04T01:59:51.255Z,25.72
2023-02-04T02:00:51.268Z,25.76
2023-02-04T02:01:51.245Z,25.70
2023-02-04T02:02:51.240Z,25.80
2023-02-04T02:03:51.204Z,25.73
2023-02-04T02:04:51.192Z,25.72
2023-02-04T02:05:51.210Z,25.73
2023-02-04T02:06:51.183Z,25.81
2023-02-04T02:07:51.166Z,25.75
2023-02-04T02:08:51.171Z,25.75
2023-02-04T02:09:51.149Z,25.75
2023-02-04T02:10:51.134Z,25.76
2023-02-04T02:11:51.126Z,25.75
2023-02-04T02:12:51.126Z,25.72
2023-02-04T02:13:51.112Z,25.69
2023-02-04T02:14:51.087Z,25.72
2023-02-04T02:15:51.083Z,25.72
2023-02-04T02:16:51.147Z,25.69
2023-02-04T02:17:51.082Z,25.70
2023-02-04T02:18:51.080Z,25.69
2023-02-04T02:19:51.068Z,25.68
2023-02-04T02:20:51.068Z,25.66
2023-02-04T02:21:51.068Z,25.72
2023-02-04T02:22:51.072Z,25.73
2023-02-04T02:23:51.078Z,25.70
2023-02-04T02:24:51.057Z,25.70
2023-02-04T02:25:51.058Z,25.70
2023-02-04T02:26:51.049Z,25.72
2023-02-04T02:27:51.063Z,25.73
2023-02-04T02:28:51.038Z,25.72
2023-02-04T02:29:51.018Z,25.69
2023-02-04T02:30:51.149Z,25.72
2023-02-04T02:31:51.129Z,25.67
2023-02-04T02:32:50.998Z,25.73
2023-02-04T02:33:51.035Z,25.72
2023-02-04T02:34:50.987Z,25.70
2023-02-04T02:35:50.980Z,25.72
2023-02-04T02:36:50.962Z,25.69
2023-02-04T02:37:50.953Z,25.69
2023-02-04T02:38:50.941Z,25.74
2023-02-04T02:39:50.930Z,25.70
2023-02-04T02:40:50.928Z,25.73
2023-02-04T02:41:50.927Z,25.73
2023-02-04T02:42:50.917Z,25.64
2023-02-04T02:43:50.918Z,25.72
2023-02-04T02:44:50.902Z,25.69
2023-02-04T02:45:50.938Z,25.70
2023-02-04T02:46:50.881Z,25.65
2023-02-04T02:47:50.888Z,25.67
2023-02-04T02:48:50.874Z,25.73
2023-02-04T02:49:50.858Z,25.64
2023-02-04T02:50:50.855Z,25.67
2023-02-04T02:51:50.852Z,25.70
2023-02-04T02:52:50.837Z,25.65
2023-02-04T02:53:50.829Z,25.61
2023-02-04T02:54:50.810Z,25.61
2023-02-04T02:55:50.808Z,25.63
2023-02-04T02:56:50.794Z,25.60
2023-02-04T02:57:50.779Z,25.57
2023-02-04T02:58:50.762Z,25.51
2023-02-04T02:59:50.739Z,25.48
2023-02-04T03:00:50.718Z,25.54
2023-02-04T03:01:50.719Z,25.48
2023-02-04T03:02:50.747Z,25.52
2023-02-04T03:03:50.728Z,25.51
2023-02-04T03:04:50.672Z,25.48
2023-02-04T03:05:50.665Z,25.42
2023-02-04T03:06:50.736Z,25.51
2023-02-04T03:07:50.759Z,25.49
2023-02-04T03:08:50.707Z,25.46
2023-02-04T03:09:50.664Z,25.49
2023-02-04T03:10:50.608Z,25.43
2023-02-04T03:11:50.611Z,25.44
2023-02-04T03:12:50.603Z,25.43
2023-02-04T03:13:50.606Z,25.40
2023-02-04T03:14:50.590Z,25.44
2023-02-04T03:15:50.594Z,25.43
2023-02-04T03:16:50.559Z,25.44
2023-02-04T03:17:50.543Z,25.42
2023-02-04T03:18:50.555Z,25.47
2023-02-04T03:19:50.531Z,25.40
2023-02-04T03:20:50.507Z,25.39
2023-02-04T03:21:50.499Z,25.42
2023-02-04T03:22:50.499Z,25.37
2023-02-04T03:23:50.480Z,25.38
2023-02-04T03:24:50.469Z,25.36
2023-02-04T03:25:50.461Z,25.40
2023-02-04T03:26:50.441Z,25.37
2023-02-04T03:27:50.470Z,25.37
2023-02-04T03:28:50.418Z,25.42
2023-02-04T03:29:50.414Z,25.40
2023-02-04T03:30:50.514Z,25.38
2023-02-04T03:31:50.458Z,25.40
2023-02-04T03:32:50.391Z,25.35
2023-02-04T03:33:50.385Z,25.34
2023-02-04T03:34:50.387Z,25.34
2023-02-04T03:35:50.368Z,25.35
2023-02-04T03:36:50.362Z,25.34
2023-02-04T03:37:50.353Z,25.31
2023-02-04T03:38:50.345Z,25.30
2023-02-04T03:39:50.327Z,25.30
2023-02-04T03:40:50.330Z,25.30
2023-02-04T03:41:50.317Z,25.34
2023-02-04T03:42:50.314Z,25.33
2023-02-04T03:43:50.325Z,25.25
2023-02-04T03:44:50.305Z,25.30
2023-02-04T03:45:50.302Z,25.24
2023-02-04T03:46:50.300Z,25.26
2023-02-04T03:47:50.301Z,25.26
2023-02-04T03:48:50.305Z,25.27
2023-02-04T03:49:50.291Z,25.26
2023-02-04T03:50:50.289Z,25.26
2023-02-04T03:51:50.288Z,25.25
2023-02-04T03:52:50.281Z,25.25
2023-02-04T03:53:50.289Z,25.25
2023-02-04T03:54:50.281Z,25.16
2023-02-04T03:55:50.278Z,25.22
2023-02-04T03:56:50.277Z,25.22
2023-02-04T03:57:50.266Z,25.20
2023-02-04T03:58:50.256Z,25.22
2023-02-04T03:59:50.251Z,25.21
2023-02-04T04:00:50.243Z,25.21
2023-02-04T04:01:50.292Z,25.19
2023-02-04T04:02:50.241Z,25.20
2023-02-04T04:03:50.232Z,25.18
2023-02-04T04:04:50.232Z,25.19
2023-02-04T04:05:50.217Z,25.16
2023-02-04T04:06:50.235Z,25.19
2023-02-04T04:07:50.219Z,25.16
2023-02-04T04:08:50.204Z,25.16
2023-02-04T04:09:50.195Z,25.13
2023-02-04T04:10:50.201Z,25.19
2023-02-04T04:11:50.170Z,25.17
2023-02-04T04:12:50.163Z,25.22
2023-02-04T04:13:50.144Z,25.19
2023-02-04T04:14:50.131Z,25.17
2023-02-04T04:15:50.157Z,25.12
2023-02-04T04:16:50.109Z,25.20
2023-02-04T04:17:50.132Z,25.13
2023-02-04T04:18:50.082Z,25.15
2023-02-04T04:19:50.067Z,25.15
2023-02-04T04:20:50.072Z,25.15
2023-02-04T04:21:50.060Z,25.11
2023-02-04T04:22:50.042Z,25.11
2023-02-04T04:23:50.031Z,25.16
2023-02-04T04:24:50.015Z,25.09
2023-02-04T04:25:49.997Z,25.10
2023-02-04T04:26:49.982Z,25.11
2023-02-04T04:27:49.989Z,25.10
2023-02-04T04:28:49.954Z,25.11
2023-02-04T04:29:49.946Z,25.13
2023-02-04T04:30:50.049Z,25.13
2023-02-04T04:31:49.972Z,25.10
2023-02-04T04:32:49.944Z,25.11
2023-02-04T04:33:49.918Z,25.10
2023-02-04T04:34:49.917Z,25.10
2023-02-04T04:35:49.922Z,25.07
2023-02-04T04:36:49.884Z,25.06
2023-02-04T04:37:49.876Z,25.07
2023-02-04T04:38:49.856Z,25.01
2023-02-04T04:39:49.908Z,25.09
2023-02-04T04:40:49.856Z,25.08
2023-02-04T04:41:49.845Z,25.07
2023-02-04T04:42:49.854Z,25.11
2023-02-04T04:43:49.835Z,25.08
2023-02-04T04:44:49.831Z,25.08
2023-02-04T04:45:49.836Z,25.03
2023-02-04T04:46:49.868Z,25.09
2023-02-04T04:47:49.809Z,25.05
2023-02-04T04:48:49.799Z,25.08
2023-02-04T04:49:49.774Z,25.03
2023-02-04T04:50:49.783Z,25.08
2023-02-04T04:51:49.778Z,25.04
2023-02-04T04:52:49.747Z,25.03
2023-02-04T04:53:49.743Z,25.03
2023-02-04T04:54:49.725Z,25.01
2023-02-04T04:55:49.732Z,24.98
2023-02-04T04:56:49.711Z,24.98
2023-02-04T04:57:49.695Z,25.04
2023-02-04T04:58:49.683Z,25.01
2023-02-04T04:59:49.692Z,24.97
2023-02-04T05:00:49.763Z,24.97
2023-02-04T05:01:49.704Z,24.99
2023-02-04T05:02:49.655Z,25.01
2023-02-04T05:03:49.621Z,25.00
2023-02-04T05:04:49.764Z,24.98
2023-02-04T05:05:49.640Z,24.98
2023-02-04T05:06:49.596Z,24.97
2023-02-04T05:07:49.559Z,24.99
2023-02-04T05:08:49.565Z,25.01
2023-02-04T05:09:49.559Z,24.98
2023-02-04T05:10:49.525Z,24.99
2023-02-04T05:11:49.504Z,24.98
2023-02-04T05:12:49.496Z,24.98
2023-02-04T05:13:49.481Z,24.98
2023-02-04T05:14:49.467Z,24.97
2023-02-04T05:15:49.461Z,24.95
2023-02-04T05:16:49.449Z,24.95
2023-02-04T05:17:49.427Z,24.95
2023-02-04T05:18:49.408Z,24.98
2023-02-04T05:19:49.393Z,24.95
2023-02-04T05:20:49.380Z,25.01
2023-02-04T05:21:49.366Z,24.98
2023-02-04T05:22:49.360Z,24.95
2023-02-04T05:23:49.350Z,25.00
2023-02-04T05:24:49.371Z,24.98
2023-02-04T05:25:49.340Z,24.98
2023-02-04T05:26:49.332Z,25.09
2023-02-04T05:27:49.339Z,25.00
2023-02-04T05:28:49.310Z,25.00
2023-02-04T05:29:49.320Z,24.98
2023-02-04T05:30:49.304Z,25.01
2023-02-04T05:31:49.343Z,25.07
2023-02-04T05:32:49.279Z,25.09
2023-02-04T05:33:49.268Z,25.03
2023-02-04T05:34:49.252Z,25.05
2023-02-04T05:35:50.025Z,25.00
2023-02-04T05:36:49.219Z,25.06
2023-02-04T05:37:49.198Z,25.02
2023-02-04T05:38:49.259Z,25.07
2023-02-04T05:39:49.175Z,25.04
2023-02-04T05:40:49.167Z,25.09
2023-02-04T05:41:49.176Z,25.09
2023-02-04T05:42:49.176Z,25.07
2023-02-04T05:43:49.141Z,25.03
2023-02-04T05:44:49.122Z,25.09
2023-02-04T05:45:49.158Z,25.06
2023-02-04T05:46:49.109Z,25.12
2023-02-04T05:47:49.075Z,25.10
2023-02-04T05:48:49.075Z,25.14
2023-02-04T05:49:49.081Z,25.10
2023-02-04T05:50:49.076Z,25.12
2023-02-04T05:51:49.222Z,25.13
2023-02-04T05:52:49.049Z,25.16
2023-02-04T05:53:48.990Z,25.08
2023-02-04T05:54:48.982Z,25.15
2023-02-04T05:55:48.962Z,25.12
2023-02-04T05:56:48.957Z,25.15
2023-02-04T05:57:48.925Z,25.10
2023-02-04T05:58:48.921Z,25.16
2023-02-04T05:59:48.889Z,25.18
2023-02-04T06:00:48.873Z,25.21
2023-02-04T06:01:48.867Z,25.24
2023-02-04T06:02:48.841Z,25.19
2023-02-04T06:03:48.831Z,25.24
2023-02-04T06:04:48.832Z,25.16
2023-02-04T06:05:48.797Z,25.19
2023-02-04T06:06:48.804Z,25.19
2023-02-04T06:07:48.768Z,25.22
2023-02-04T06:08:48.769Z,25.21
2023-02-04T06:09:48.735Z,25.15
2023-02-04T06:10:48.734Z,25.18
2023-02-04T06:11:48.709Z,25.24
2023-02-04T06:12:48.703Z,25.21
2023-02-04T06:13:48.675Z,25.24
2023-02-04T06:14:48.672Z,25.24
2023-02-04T06:15:48.640Z,25.25
2023-02-04T06:16:48.692Z,25.24
2023-02-04T06:17:48.616Z,25.25
2023-02-04T06:18:48.613Z,25.26
2023-02-04T06:19:48.614Z,25.28
2023-02-04T06:20:48.555Z,25.28
2023-02-04T06:21:48.540Z,25.31
2023-02-04T06:22:48.518Z,25.28
2023-02-04T06:23:48.490Z,25.31
2023-02-04T06:24:48.480Z,25.24
2023-02-04T06:25:48.449Z,25.30
2023-02-04T06:26:48.454Z,25.26
2023-02-04T06:27:48.456Z,25.31
2023-02-04T06:28:48.416Z,25.26
2023-02-04T06:29:48.390Z,25.30
2023-02-04T06:30:48.455Z,25.28
2023-02-04T06:31:48.534Z,25.28
2023-02-04T06:32:48.370Z,25.25
2023-02-04T06:33:48.364Z,25.25
2023-02-04T06:34:48.360Z,25.25
2023-02-04T06:35:48.356Z,25.27
2023-02-04T06:36:48.366Z,25.30
2023-02-04T06:37:48.348Z,25.27
2023-02-04T06:38:48.330Z,25.31
2023-02-04T06:39:48.306Z,25.31
2023-02-04T06:40:48.304Z,25.26
2023-02-04T06:41:48.289Z,25.27
2023-02-04T06:42:48.309Z,25.26
2023-02-04T06:43:48.281Z,25.30
2023-02-04T06:44:48.281Z,25.33
2023-02-04T06:45:48.302Z,25.31
2023-02-04T06:46:48.251Z,25.28
2023-02-04T06:47:48.250Z,25.31
2023-02-04T06:48:48.247Z,25.30
2023-02-04T06:49:48.221Z,25.33
2023-02-04T06:50:48.220Z,25.30
2023-02-04T06:51:48.198Z,25.33
2023-02-04T06:52:48.187Z,25.33
2023-02-04T06:53:48.171Z,25.30
2023-02-04T06:54:48.165Z,25.33
2023-02-04T06:55:48.144Z,25.31
2023-02-04T06:56:48.138Z,25.33
2023-02-04T06:57:48.131Z,25.33
2023-02-04T06:58:48.124Z,25.33
2023-02-04T06:59:48.114Z,25.30
2023-02-04T07:00:48.099Z,25.33
2023-02-04T07:01:48.092Z,25.33
2023-02-04T07:02:48.139Z,25.33
2023-02-04T07:03:48.071Z,25.30
2023-02-04T07:04:48.072Z,25.40
2023-02-04T07:05:48.063Z,25.34
2023-02-04T07:06:48.070Z,25.36
2023-02-04T07:07:48.048Z,25.37
2023-02-04T07:08:48.036Z,25.36
2023-02-04T07:10:48.024Z,25.37
2023-02-04T07:18:47.977Z,25.37
2023-02-04T07:19:47.963Z,25.33
2023-02-04T07:20:47.964Z,25.39
2023-02-04T07:21:47.951Z,25.37
2023-02-04T07:22:47.948Z,25.34
2023-02-04T07:23:47.936Z,25.36
2023-02-04T07:24:47.936Z,25.37
2023-02-04T07:25:47.931Z,25.36
2023-02-04T07:26:47.930Z,25.36
2023-02-04T07:27:47.982Z,25.37
2023-02-04T07:28:47.926Z,25.33
2023-02-04T07:29:48.037Z,25.34
2023-02-04T07:30:48.081Z,25.35
2023-02-04T07:31:47.997Z,25.34
2023-02-04T07:32:47.904Z,25.33
2023-02-04T07:33:47.900Z,25.37
2023-02-04T07:34:47.891Z,25.34
2023-02-04T07:35:47.888Z,25.34
2023-02-04T07:36:48.015Z,25.36
2023-02-04T07:37:47.890Z,25.38
2023-02-04T07:38:47.858Z,25.37
2023-02-04T07:39:47.859Z,26.88
2023-02-04T07:40:47.840Z,26.52
2023-02-04T07:41:47.837Z,26.27
2023-02-04T07:42:47.837Z,26.33
2023-02-04T07:43:47.819Z,26.20
2023-02-04T07:45:47.796Z,26.20
2023-02-04T12:12:44.908Z,25.40
2023-02-04T12:13:44.879Z,25.41
2023-02-04T12:14:44.872Z,25.39
2023-02-04T12:15:44.872Z,25.35
2023-02-04T12:16:44.851Z,25.36
2023-02-04T12:17:44.857Z,25.39
2023-02-04T12:18:44.822Z,25.45
2023-02-04T12:19:44.802Z,25.40
2023-02-04T12:20:44.791Z,25.40
2023-02-04T12:21:44.779Z,25.36
2023-02-04T12:22:44.771Z,25.39
2023-02-04T12:23:44.736Z,25.42
2023-02-04T12:24:44.737Z,25.37
2023-02-04T12:25:44.734Z,25.40
2023-02-04T12:26:44.707Z,25.36
2023-02-04T12:27:44.761Z,25.39
2023-02-04T12:28:44.683Z,25.36
2023-02-04T12:29:44.681Z,25.42
2023-02-04T12:30:44.705Z,25.33
2023-02-04T12:31:44.770Z,25.35
2023-02-04T12:32:44.667Z,25.31
2023-02-04T12:33:44.653Z,25.35
2023-02-04T12:34:44.651Z,25.37
2023-02-04T12:35:44.637Z,25.40
2023-02-04T12:36:44.639Z,25.43
2023-02-04T12:37:44.616Z,25.34
2023-02-04T12:38:44.700Z,25.42
2023-02-04T12:39:44.612Z,25.36
2023-02-04T12:40:44.608Z,25.39
2023-02-04T12:41:44.599Z,25.36
2023-02-04T12:42:44.595Z,25.37
2023-02-04T12:43:44.584Z,25.36
2023-02-04T12:44:44.595Z,25.34
2023-02-04T12:45:44.569Z,25.36
2023-02-04T12:46:44.597Z,25.39
2023-02-04T12:47:44.544Z,25.28
2023-02-04T12:48:44.579Z,25.36
2023-02-04T12:49:44.522Z,25.36
2023-02-04T12:50:44.513Z,25.30
2023-02-04T12:51:44.507Z,25.36
2023-02-04T12:52:44.489Z,25.25
2023-02-04T12:53:44.474Z,25.33
2023-02-04T12:54:44.452Z,25.30
2023-02-04T12:55:44.439Z,25.33
2023-02-04T12:56:44.430Z,25.37
2023-02-04T12:57:44.406Z,25.36
2023-02-04T12:58:44.389Z,25.34
2023-02-04T12:59:44.375Z,25.36
2023-02-04T13:00:44.398Z,25.27
2023-02-04T13:01:44.468Z,25.23
2023-02-04T13:02:44.334Z,25.30
2023-02-04T13:03:44.331Z,25.30
2023-02-04T13:04:44.309Z,25.31
2023-02-04T13:05:44.303Z,25.33
2023-02-04T13:06:44.295Z,25.33
2023-02-04T13:07:44.281Z,25.32
2023-02-04T13:08:44.268Z,25.30
2023-02-04T13:09:44.258Z,25.26
2023-02-04T13:10:44.248Z,25.30
2023-02-04T13:11:44.236Z,25.27
2023-02-04T13:12:44.219Z,25.29
2023-02-04T13:13:44.220Z,25.25
2023-02-04T13:14:44.188Z,25.23
2023-02-04T13:15:44.176Z,25.25
2023-02-04T13:16:44.174Z,25.27
2023-02-04T13:17:44.157Z,25.26
2023-02-04T13:18:44.159Z,25.26
2023-02-04T13:19:44.123Z,25.26
2023-02-04T13:20:44.117Z,25.27
2023-02-04T13:21:44.103Z,25.27
2023-02-04T13:22:44.086Z,25.26
2023-02-04T13:23:44.063Z,25.24
2023-02-04T13:24:44.059Z,25.23
2023-02-04T13:25:44.028Z,25.23
2023-02-04T13:26:44.026Z,25.17
2023-02-04T13:27:44.042Z,25.17
2023-02-04T13:28:44.014Z,25.23
2023-02-04T13:29:43.956Z,25.20
2023-02-04T13:30:43.989Z,25.20
2023-02-04T13:31:43.990Z,25.20
2023-02-04T13:32:43.912Z,25.16
2023-02-04T13:33:43.875Z,25.14
2023-02-04T13:34:43.854Z,25.19
2023-02-04T13:35:43.831Z,25.16
2023-02-04T13:36:43.828Z,25.09
2023-02-04T13:37:43.806Z,25.07
2023-02-04T13:38:43.778Z,25.07
2023-02-04T13:39:43.752Z,25.07
2023-02-04T13:40:43.736Z,25.15
2023-02-04T13:41:43.716Z,25.09
2023-02-04T13:42:43.700Z,25.02
2023-02-04T13:43:43.674Z,25.02
2023-02-04T13:44:43.656Z,24.92
2023-02-04T13:45:43.675Z,24.83
2023-02-04T13:46:43.642Z,24.96
2023-02-04T13:47:43.624Z,25.00
2023-02-04T13:48:43.613Z,24.94
2023-02-04T13:49:43.597Z,24.92
2023-02-04T13:50:43.595Z,24.84
2023-02-04T13:51:43.575Z,24.92
2023-02-04T13:52:43.564Z,24.83
2023-02-04T13:53:43.543Z,24.82
2023-02-04T13:54:43.525Z,24.82
2023-02-04T13:55:43.505Z,24.69
2023-02-04T13:56:43.498Z,24.66
2023-02-04T13:57:43.477Z,24.76
2023-02-04T13:58:43.468Z,24.71
2023-02-04T13:59:43.444Z,24.76
2023-02-04T14:00:43.468Z,24.72
2023-02-04T14:01:43.504Z,24.62
2023-02-04T14:02:43.387Z,24.51
2023-02-04T14:03:43.367Z,24.43
2023-02-04T14:04:43.366Z,24.30
2023-02-04T14:05:43.313Z,24.38
2023-02-04T14:06:43.357Z,24.37
2023-02-04T14:07:43.306Z,24.29
2023-02-04T14:08:43.337Z,24.36
2023-02-04T14:09:43.251Z,24.36
2023-02-04T14:10:43.219Z,24.24
2023-02-04T14:11:43.198Z,24.25
2023-02-04T14:12:43.191Z,24.11
2023-02-04T14:13:43.155Z,24.06
2023-02-04T14:14:43.145Z,23.98
2023-02-04T14:15:43.124Z,24.06
2023-02-04T14:16:43.123Z,24.00
2023-02-04T14:17:43.066Z,23.94
2023-02-04T14:18:43.042Z,23.99
2023-02-04T14:19:43.017Z,23.90
2023-02-04T14:20:43.024Z,24.00
2023-02-04T14:21:42.957Z,24.04
2023-02-04T14:22:42.937Z,24.18
2023-02-04T14:23:42.899Z,24.21
2023-02-04T14:24:42.951Z,24.31
2023-02-04T14:25:42.852Z,24.33
2023-02-04T14:26:42.817Z,24.40
2023-02-04T14:27:42.915Z,24.51
2023-02-04T14:28:42.787Z,24.49
2023-02-04T14:29:42.788Z,24.45
2023-02-04T14:30:42.788Z,24.46
2023-02-04T14:31:42.796Z,24.43
2023-02-04T14:32:42.720Z,24.45
2023-02-04T14:33:42.714Z,24.42
2023-02-04T14:34:42.688Z,24.49
2023-02-04T14:35:42.673Z,24.49
2023-02-04T14:36:42.636Z,24.47
2023-02-04T14:37:42.612Z,24.53
2023-02-04T14:38:42.595Z,24.57
2023-02-04T14:39:42.577Z,24.56
2023-02-04T14:40:43.823Z,24.57
2023-02-04T14:41:42.527Z,24.56
2023-02-04T14:42:42.512Z,24.61
2023-02-04T14:43:42.479Z,24.60
2023-02-04T14:44:42.464Z,24.66
2023-02-04T14:45:42.452Z,24.60
2023-02-04T14:46:42.419Z,24.64
2023-02-04T14:47:42.386Z,24.66
2023-02-04T14:48:42.358Z,24.64
2023-02-04T14:49:42.338Z,24.67
2023-02-04T14:50:42.323Z,24.65
2023-02-04T14:51:42.294Z,24.67
2023-02-04T14:52:42.276Z,24.65
2023-02-04T14:53:46.098Z,24.65
2023-02-04T14:54:43.226Z,24.68
2023-02-04T14:55:42.211Z,24.63
2023-02-04T14:56:42.207Z,24.69
2023-02-04T14:57:42.166Z,24.68
2023-02-04T14:58:42.135Z,24.60
2023-02-04T14:59:42.123Z,24.56
2023-02-04T15:00:42.105Z,24.65
2023-02-04T15:01:42.146Z,24.69
2023-02-04T15:02:42.091Z,24.72
2023-02-04T15:03:42.037Z,24.69
2023-02-04T15:04:42.021Z,24.77
2023-02-04T15:05:42.026Z,24.70
2023-02-04T15:06:42.017Z,24.72
2023-02-04T15:07:41.979Z,24.67
2023-02-04T15:08:41.961Z,24.70
2023-02-04T15:09:41.946Z,24.69
2023-02-04T15:10:41.946Z,24.77
2023-02-04T15:11:41.914Z,24.72
2023-02-04T15:12:41.909Z,24.71
2023-02-04T15:13:41.881Z,24.68
2023-02-04T15:14:41.871Z,24.70
2023-02-04T15:15:41.854Z,24.73
2023-02-04T15:16:41.877Z,24.71
2023-02-04T15:17:41.821Z,24.64
2023-02-04T15:18:41.864Z,24.70
2023-02-04T15:19:41.797Z,24.70
2023-02-04T15:20:41.785Z,24.71
2023-02-04T15:21:41.771Z,24.73
2023-02-04T15:22:41.759Z,24.71
2023-02-04T15:23:41.723Z,24.70
2023-02-04T15:24:41.713Z,24.67
2023-02-04T15:25:41.698Z,24.71
2023-02-04T15:26:41.690Z,24.71
2023-02-04T15:27:41.695Z,24.74
2023-02-04T15:28:41.651Z,24.70
2023-02-04T15:29:41.646Z,24.75
2023-02-04T15:30:41.789Z,24.73
2023-02-04T15:31:41.730Z,24.72
2023-02-04T15:32:41.588Z,24.71
2023-02-04T15:33:41.575Z,24.75
2023-02-04T15:34:41.550Z,24.77
2023-02-04T15:35:41.553Z,24.78
2023-02-04T15:36:41.522Z,24.74
2023-02-04T15:37:41.497Z,24.69
2023-02-04T15:38:41.488Z,24.71
2023-02-04T15:39:41.471Z,24.71
2023-02-04T15:40:41.455Z,24.71
2023-02-04T15:41:41.448Z,24.71
2023-02-04T15:42:41.439Z,24.72
2023-02-04T15:43:41.418Z,24.71
2023-02-04T15:44:41.425Z,24.72
2023-02-04T15:45:41.450Z,24.73
2023-02-04T15:46:41.388Z,24.73
2023-02-04T15:47:41.359Z,24.67
2023-02-04T15:48:41.346Z,24.73
2023-02-04T15:49:41.354Z,24.76
2023-02-04T15:50:41.332Z,24.73
2023-02-04T15:51:41.332Z,24.73
2023-02-04T15:52:41.309Z,24.75
2023-02-04T15:53:41.296Z,24.79
2023-02-04T15:54:41.290Z,24.85
2023-02-04T15:55:41.287Z,24.82
2023-02-04T15:56:42.376Z,24.85
2023-02-04T15:57:41.263Z,24.85
2023-02-04T15:58:41.243Z,24.80
2023-02-04T15:59:41.246Z,24.82
2023-02-04T16:00:41.239Z,24.86
2023-02-04T16:01:41.326Z,24.77
2023-02-04T16:02:41.242Z,24.77
2023-02-04T16:03:41.208Z,24.84
2023-02-04T16:04:41.197Z,24.84
2023-02-04T16:05:41.185Z,24.84
2023-02-04T16:06:45.012Z,24.82
2023-02-04T16:07:42.176Z,24.83
2023-02-04T16:08:41.145Z,24.83
2023-02-04T16:09:41.127Z,24.86
2023-02-04T16:10:41.120Z,24.87
2023-02-04T16:11:41.122Z,24.80
2023-02-04T16:12:41.093Z,24.86
2023-02-04T16:13:41.073Z,24.78
2023-02-04T16:14:41.063Z,24.78
2023-02-04T16:15:41.075Z,24.83
2023-02-04T16:16:41.038Z,24.78
2023-02-04T16:17:41.027Z,24.81
2023-02-04T16:18:41.981Z,24.84
2023-02-04T16:19:41.006Z,24.87
2023-02-04T16:20:40.960Z,24.84
2023-02-04T16:21:40.949Z,24.82
2023-02-04T16:22:40.938Z,24.85
2023-02-04T16:23:42.748Z,24.84
2023-02-04T16:24:41.004Z,24.84
2023-02-04T16:25:40.984Z,24.87
2023-02-04T16:26:40.969Z,24.90
2023-02-04T16:27:40.986Z,24.82
2023-02-04T16:28:40.936Z,24.85
2023-02-04T16:29:40.920Z,24.87
2023-02-04T16:30:40.945Z,24.87
2023-02-04T16:31:40.948Z,24.84
2023-02-04T16:32:40.889Z,24.87
2023-02-04T16:33:40.873Z,24.89
2023-02-04T16:34:40.862Z,24.83
2023-02-04T16:35:40.865Z,24.88
2023-02-04T16:36:40.830Z,24.88
2023-02-04T16:37:40.825Z,24.79
2023-02-04T16:38:40.830Z,24.83
2023-02-04T16:39:40.814Z,24.85
2023-02-04T16:40:40.801Z,24.84
2023-02-04T16:41:40.825Z,24.81
2023-02-04T16:42:40.797Z,24.85
2023-02-04T16:43:40.788Z,24.82
2023-02-04T16:44:40.761Z,24.83
2023-02-04T16:45:40.758Z,24.81
2023-02-04T16:46:40.907Z,24.80
2023-02-04T16:47:40.774Z,24.85
2023-02-04T16:48:40.706Z,24.92
2023-02-04T16:49:40.704Z,24.86
2023-02-04T16:50:40.682Z,24.82
2023-02-04T16:51:40.675Z,24.85
2023-02-04T16:52:40.759Z,24.82
2023-02-04T16:53:40.648Z,24.83
2023-02-04T16:54:40.635Z,24.83
2023-02-04T16:55:40.637Z,24.85
2023-02-04T16:56:40.614Z,24.79
2023-02-04T16:57:40.616Z,24.82
2023-02-04T16:58:40.585Z,24.88
2023-02-04T16:59:40.570Z,24.80
2023-02-04T17:00:40.553Z,24.83
2023-02-04T17:01:40.557Z,24.85
2023-02-04T17:02:40.551Z,24.83
2023-02-04T17:03:40.524Z,24.87
2023-02-04T17:04:40.515Z,24.88
2023-02-04T17:05:40.500Z,24.86
2023-02-04T17:06:40.498Z,24.82
2023-02-04T17:07:40.503Z,24.84
2023-02-04T17:08:40.469Z,24.86
2023-02-04T17:09:40.456Z,24.84
2023-02-04T17:10:40.454Z,24.87
2023-02-04T17:11:40.441Z,24.86
2023-02-04T17:12:40.442Z,24.84
2023-02-04T17:13:40.427Z,24.84
2023-02-04T17:14:40.424Z,24.82
2023-02-04T17:15:40.408Z,24.90
2023-02-04T17:16:40.393Z,24.89
2023-02-04T17:17:40.381Z,24.89
2023-02-04T17:18:40.369Z,24.87
2023-02-04T17:19:40.382Z,24.89
2023-02-04T17:20:40.380Z,24.84
2023-02-04T17:21:40.349Z,24.90
2023-02-04T17:22:40.351Z,24.87
2023-02-04T17:23:40.345Z,24.84
2023-02-04T17:24:40.337Z,24.86
2023-02-04T17:25:40.341Z,24.88
2023-02-04T17:26:40.324Z,24.90
2023-02-04T17:27:40.359Z,24.89